Terminal Aerodrome Forecast
Issued by NWS

Home | Current Version | Previous Version | Text Only | Print | Product List | Glossary On
Versions: 1 2 3 4 5 6 7 8 9 10 11 12 13 14 15 16 17 18 19 20 21 22 23 24 25 26 27 28 29 30 31 32 33 34 35 36
783
FTUS46 KPDT 210119 AAA
TAFRDM
TAF AMD
KRDM 210119Z 2101/2124 VRB04KT P6SM OVC050
     FM210400 VRB03KT 4SM BR OVC007
     FM211600 VRB04KT P6SM BKN020
     FM212100 31006KT P6SM SCT020 SCT200=

USA.gov is the U.S. government's official web portal to all federal, state and local government web resources and services.